sensor_id;sensor_type;location;lat;lon;timestamp;pressure;altitude;pressure_sealevel;temperature;humidity
27840;BME280;15207;42.182;24.308;2024-03-08T00:00:11;99399.44;;;6.48;100.00
27840;BME280;15207;42.182;24.308;2024-03-08T00:02:44;99387.53;;;6.40;100.00
27840;BME280;15207;42.182;24.308;2024-03-08T00:05:11;99393.34;;;6.46;100.00
27840;BME280;15207;42.182;24.308;2024-03-08T00:07:39;99394.09;;;6.34;100.00
27840;BME280;15207;42.182;24.308;2024-03-08T00:10:05;99393.03;;;6.22;100.00
27840;BME280;15207;42.182;24.308;2024-03-08T00:12:31;99392.47;;;6.31;100.00
27840;BME280;15207;42.182;24.308;2024-03-08T00:14:57;99388.38;;;6.26;100.00
27840;BME280;15207;42.182;24.308;2024-03-08T00:17:22;99388.25;;;6.13;100.00
27840;BME280;15207;42.182;24.308;2024-03-08T00:19:48;99381.38;;;6.08;100.00
27840;BME280;15207;42.182;24.308;2024-03-08T00:22:15;99386.72;;;6.08;100.00
27840;BME280;15207;42.182;24.308;2024-03-08T00:24:41;99381.03;;;6.15;100.00
27840;BME280;15207;42.182;24.308;2024-03-08T00:27:06;99383.59;;;6.16;100.00
27840;BME280;15207;42.182;24.308;2024-03-08T00:29:34;99381.22;;;6.12;100.00
27840;BME280;15207;42.182;24.308;2024-03-08T00:31:59;99379.22;;;6.15;100.00
27840;BME280;15207;42.182;24.308;2024-03-08T00:34:25;99379.97;;;6.17;100.00
27840;BME280;15207;42.182;24.308;2024-03-08T00:36:51;99378.28;;;6.16;100.00
27840;BME280;15207;42.182;24.308;2024-03-08T00:39:18;99377.06;;;6.22;100.00
27840;BME280;15207;42.182;24.308;2024-03-08T00:41:45;99374.97;;;6.27;100.00
27840;BME280;15207;42.182;24.308;2024-03-08T00:44:10;99381.72;;;6.18;100.00
27840;BME280;15207;42.182;24.308;2024-03-08T00:46:36;99376.09;;;6.23;100.00
27840;BME280;15207;42.182;24.308;2024-03-08T00:49:01;99372.78;;;6.19;100.00
27840;BME280;15207;42.182;24.308;2024-03-08T00:51:27;99375.22;;;6.08;100.00
27840;BME280;15207;42.182;24.308;2024-03-08T00:53:52;99366.97;;;6.13;100.00
27840;BME280;15207;42.182;24.308;2024-03-08T00:56:17;99374.41;;;6.22;100.00
27840;BME280;15207;42.182;24.308;2024-03-08T00:58:43;99365.25;;;6.12;100.00
27840;BME280;15207;42.182;24.308;2024-03-08T01:01:08;99375.53;;;6.18;100.00
27840;BME280;15207;42.182;24.308;2024-03-08T01:03:35;99362.69;;;6.10;100.00
27840;BME280;15207;42.182;24.308;2024-03-08T01:06:01;99364.13;;;6.16;100.00
27840;BME280;15207;42.182;24.308;2024-03-08T01:08:27;99368.09;;;6.08;100.00
27840;BME280;15207;42.182;24.308;2024-03-08T01:10:53;99363.94;;;6.19;100.00
27840;BME280;15207;42.182;24.308;2024-03-08T01:13:18;99357.31;;;5.95;100.00
27840;BME280;15207;42.182;24.308;2024-03-08T01:15:44;99359.31;;;6.22;100.00
27840;BME280;15207;42.182;24.308;2024-03-08T01:18:10;99354.16;;;6.19;100.00
27840;BME280;15207;42.182;24.308;2024-03-08T01:20:35;99352.56;;;6.31;100.00
27840;BME280;15207;42.182;24.308;2024-03-08T01:23:01;99356.06;;;6.32;100.00
27840;BME280;15207;42.182;24.308;2024-03-08T01:25:26;99354.16;;;6.19;100.00
27840;BME280;15207;42.182;24.308;2024-03-08T01:27:52;99346.56;;;6.13;100.00
27840;BME280;15207;42.182;24.308;2024-03-08T01:30:19;99358.25;;;6.11;100.00
27840;BME280;15207;42.182;24.308;2024-03-08T01:32:44;99357.38;;;6.10;100.00
27840;BME280;15207;42.182;24.308;2024-03-08T01:35:09;99351.88;;;6.13;100.00
27840;BME280;15207;42.182;24.308;2024-03-08T01:37:35;99353.59;;;6.14;100.00
27840;BME280;15207;42.182;24.308;2024-03-08T01:40:01;99359.06;;;6.11;100.00
27840;BME280;15207;42.182;24.308;2024-03-08T01:42:28;99356.44;;;6.26;100.00
27840;BME280;15207;42.182;24.308;2024-03-08T01:44:54;99360.34;;;6.34;100.00
27840;BME280;15207;42.182;24.308;2024-03-08T01:47:20;99365.47;;;6.23;100.00
27840;BME280;15207;42.182;24.308;2024-03-08T01:49:51;99369.81;;;6.09;100.00
27840;BME280;15207;42.182;24.308;2024-03-08T01:52:17;99372.00;;;6.17;100.00
27840;BME280;15207;42.182;24.308;2024-03-08T01:54:47;99364.84;;;6.03;100.00
27840;BME280;15207;42.182;24.308;2024-03-08T01:57:13;99371.66;;;6.24;100.00
27840;BME280;15207;42.182;24.308;2024-03-08T01:59:40;99365.28;;;6.26;100.00
27840;BME280;15207;42.182;24.308;2024-03-08T02:02:07;99363.69;;;6.24;100.00
27840;BME280;15207;42.182;24.308;2024-03-08T02:04:34;99366.09;;;6.12;100.00
27840;BME280;15207;42.182;24.308;2024-03-08T02:06:59;99364.06;;;6.01;100.00
27840;BME280;15207;42.182;24.308;2024-03-08T02:09:25;99362.97;;;5.89;100.00
27840;BME280;15207;42.182;24.308;2024-03-08T02:11:51;99362.63;;;5.95;100.00
27840;BME280;15207;42.182;24.308;2024-03-08T02:14:19;99366.75;;;5.85;100.00
27840;BME280;15207;42.182;24.308;2024-03-08T02:16:45;99358.44;;;5.61;100.00
27840;BME280;15207;42.182;24.308;2024-03-08T02:19:10;99355.78;;;5.61;100.00
27840;BME280;15207;42.182;24.308;2024-03-08T02:21:36;99349.94;;;5.70;100.00
27840;BME280;15207;42.182;24.308;2024-03-08T02:24:02;99347.28;;;5.85;100.00
27840;BME280;15207;42.182;24.308;2024-03-08T02:26:28;99350.16;;;5.81;100.00
27840;BME280;15207;42.182;24.308;2024-03-08T02:28:53;99345.00;;;5.78;100.00
27840;BME280;15207;42.182;24.308;2024-03-08T02:31:19;99356.00;;;5.72;100.00
27840;BME280;15207;42.182;24.308;2024-03-08T02:33:44;99351.56;;;5.87;100.00
27840;BME280;15207;42.182;24.308;2024-03-08T02:36:13;99350.19;;;5.96;100.00
27840;BME280;15207;42.182;24.308;2024-03-08T02:38:38;99360.16;;;5.92;100.00
27840;BME280;15207;42.182;24.308;2024-03-08T02:41:06;99359.06;;;5.80;100.00
27840;BME280;15207;42.182;24.308;2024-03-08T02:43:31;99366.00;;;5.83;100.00
27840;BME280;15207;42.182;24.308;2024-03-08T02:45:56;99352.56;;;6.01;100.00
27840;BME280;15207;42.182;24.308;2024-03-08T02:48:22;99356.81;;;5.89;100.00
27840;BME280;15207;42.182;24.308;2024-03-08T02:50:47;99359.94;;;6.12;100.00
27840;BME280;15207;42.182;24.308;2024-03-08T02:53:13;99362.03;;;6.06;100.00
27840;BME280;15207;42.182;24.308;2024-03-08T02:55:39;99360.16;;;5.92;100.00
27840;BME280;15207;42.182;24.308;2024-03-08T02:58:06;99364.69;;;6.06;100.00
27840;BME280;15207;42.182;24.308;2024-03-08T03:00:35;99359.28;;;5.92;100.00
27840;BME280;15207;42.182;24.308;2024-03-08T03:03:00;99362.59;;;6.12;100.00
27840;BME280;15207;42.182;24.308;2024-03-08T03:05:28;99362.63;;;6.26;100.00
27840;BME280;15207;42.182;24.308;2024-03-08T03:07:55;99371.84;;;6.35;100.00
27840;BME280;15207;42.182;24.308;2024-03-08T03:10:21;99375.47;;;6.34;100.00
27840;BME280;15207;42.182;24.308;2024-03-08T03:12:47;99384.50;;;6.31;100.00
27840;BME280;15207;42.182;24.308;2024-03-08T03:15:16;99379.53;;;6.40;100.00
27840;BME280;15207;42.182;24.308;2024-03-08T03:17:46;99380.69;;;6.21;100.00
27840;BME280;15207;42.182;24.308;2024-03-08T03:20:12;99382.97;;;6.27;100.00
27840;BME280;15207;42.182;24.308;2024-03-08T03:22:47;99387.44;;;6.41;100.00
27840;BME280;15207;42.182;24.308;2024-03-08T03:25:16;99381.75;;;6.47;100.00
27840;BME280;15207;42.182;24.308;2024-03-08T03:27:48;99385.72;;;6.26;100.00
27840;BME280;15207;42.182;24.308;2024-03-08T03:30:14;99388.53;;;6.08;100.00
27840;BME280;15207;42.182;24.308;2024-03-08T03:32:49;99384.63;;;6.14;100.00
27840;BME280;15207;42.182;24.308;2024-03-08T03:35:18;99393.88;;;6.22;100.00
27840;BME280;15207;42.182;24.308;2024-03-08T03:37:46;99389.19;;;6.12;100.00
27840;BME280;15207;42.182;24.308;2024-03-08T03:40:27;99393.13;;;6.35;100.00
27840;BME280;15207;42.182;24.308;2024-03-08T03:42:52;99397.34;;;6.39;100.00
27840;BME280;15207;42.182;24.308;2024-03-08T03:45:18;99394.47;;;6.42;100.00
27840;BME280;15207;42.182;24.308;2024-03-08T03:47:45;99401.91;;;6.52;100.00
27840;BME280;15207;42.182;24.308;2024-03-08T03:50:11;99402.47;;;6.57;100.00
27840;BME280;15207;42.182;24.308;2024-03-08T03:52:36;99397.06;;;6.58;100.00
27840;BME280;15207;42.182;24.308;2024-03-08T03:55:03;99400.66;;;6.43;100.00
27840;BME280;15207;42.182;24.308;2024-03-08T03:57:30;99392.56;;;6.30;100.00
27840;BME280;15207;42.182;24.308;2024-03-08T03:59:55;99400.41;;;6.01;100.00
27840;BME280;15207;42.182;24.308;2024-03-08T04:02:22;99403.78;;;6.04;100.00
27840;BME280;15207;42.182;24.308;2024-03-08T04:04:47;99401.03;;;6.06;100.00
27840;BME280;15207;42.182;24.308;2024-03-08T04:07:13;99404.47;;;5.92;100.00
27840;BME280;15207;42.182;24.308;2024-03-08T04:09:38;99398.03;;;5.96;100.00
27840;BME280;15207;42.182;24.308;2024-03-08T04:12:04;99400.41;;;6.01;100.00
27840;BME280;15207;42.182;24.308;2024-03-08T04:14:30;99403.44;;;6.11;100.00
27840;BME280;15207;42.182;24.308;2024-03-08T04:16:55;99406.19;;;6.09;100.00
27840;BME280;15207;42.182;24.308;2024-03-08T04:19:21;99403.63;;;5.91;100.00
27840;BME280;15207;42.182;24.308;2024-03-08T04:21:47;99408.94;;;6.07;100.00
27840;BME280;15207;42.182;24.308;2024-03-08T04:24:13;99403.69;;;5.90;100.00
27840;BME280;15207;42.182;24.308;2024-03-08T04:26:38;99411.59;;;5.91;100.00
27840;BME280;15207;42.182;24.308;2024-03-08T04:29:03;99417.09;;;5.88;100.00
27840;BME280;15207;42.182;24.308;2024-03-08T04:31:29;99426.44;;;5.95;100.00
27840;BME280;15207;42.182;24.308;2024-03-08T04:33:56;99422.41;;;6.04;100.00
27840;BME280;15207;42.182;24.308;2024-03-08T04:36:22;99417.41;;;5.98;100.00
27840;BME280;15207;42.182;24.308;2024-03-08T04:38:47;99414.41;;;6.04;100.00
27840;BME280;15207;42.182;24.308;2024-03-08T04:41:12;99417.34;;;6.16;100.00
27840;BME280;15207;42.182;24.308;2024-03-08T04:43:39;99420.38;;;6.24;100.00
27840;BME280;15207;42.182;24.308;2024-03-08T04:46:05;99428.13;;;6.13;100.00
27840;BME280;15207;42.182;24.308;2024-03-08T04:48:30;99415.72;;;5.97;100.00
27840;BME280;15207;42.182;24.308;2024-03-08T04:50:56;99422.94;;;5.95;100.00
27840;BME280;15207;42.182;24.308;2024-03-08T04:53:21;99426.63;;;5.76;100.00
27840;BME280;15207;42.182;24.308;2024-03-08T04:55:47;99427.84;;;5.71;100.00
27840;BME280;15207;42.182;24.308;2024-03-08T04:58:12;99424.81;;;5.77;100.00
27840;BME280;15207;42.182;24.308;2024-03-08T05:00:38;99425.25;;;5.85;100.00
27840;BME280;15207;42.182;24.308;2024-03-08T05:03:03;99428.78;;;5.86;100.00
27840;BME280;15207;42.182;24.308;2024-03-08T05:05:30;99428.66;;;5.87;100.00
27840;BME280;15207;42.182;24.308;2024-03-08T05:07:55;99441.13;;;6.03;100.00
27840;BME280;15207;42.182;24.308;2024-03-08T05:10:21;99438.50;;;6.01;100.00
27840;BME280;15207;42.182;24.308;2024-03-08T05:12:47;99447.28;;;6.03;100.00
27840;BME280;15207;42.182;24.308;2024-03-08T05:15:12;99443.91;;;6.16;100.00
27840;BME280;15207;42.182;24.308;2024-03-08T05:17:37;99448.97;;;6.20;100.00
27840;BME280;15207;42.182;24.308;2024-03-08T05:20:05;99457.53;;;6.26;100.00
27840;BME280;15207;42.182;24.308;2024-03-08T05:22:33;99457.34;;;6.29;100.00
27840;BME280;15207;42.182;24.308;2024-03-08T05:24:58;99464.59;;;6.41;100.00
27840;BME280;15207;42.182;24.308;2024-03-08T05:27:24;99463.97;;;6.52;100.00
27840;BME280;15207;42.182;24.308;2024-03-08T05:29:49;99478.56;;;6.45;100.00
27840;BME280;15207;42.182;24.308;2024-03-08T05:32:14;99469.53;;;6.47;100.00
27840;BME280;15207;42.182;24.308;2024-03-08T05:34:40;99475.81;;;6.46;100.00
27840;BME280;15207;42.182;24.308;2024-03-08T05:37:05;99479.06;;;6.52;100.00
27840;BME280;15207;42.182;24.308;2024-03-08T05:39:32;99479.00;;;6.22;100.00
27840;BME280;15207;42.182;24.308;2024-03-08T05:41:57;99483.31;;;6.40;100.00
27840;BME280;15207;42.182;24.308;2024-03-08T05:44:23;99483.28;;;6.25;100.00
27840;BME280;15207;42.182;24.308;2024-03-08T05:46:48;99481.88;;;6.34;100.00
27840;BME280;15207;42.182;24.308;2024-03-08T05:49:14;99490.25;;;6.42;100.00
27840;BME280;15207;42.182;24.308;2024-03-08T05:51:40;99484.34;;;6.37;100.00
27840;BME280;15207;42.182;24.308;2024-03-08T05:54:08;99487.34;;;6.47;100.00
27840;BME280;15207;42.182;24.308;2024-03-08T05:56:37;99496.31;;;6.60;100.00
27840;BME280;15207;42.182;24.308;2024-03-08T05:59:03;99505.22;;;6.59;100.00
27840;BME280;15207;42.182;24.308;2024-03-08T06:01:29;99508.72;;;6.45;100.00
27840;BME280;15207;42.182;24.308;2024-03-08T06:03:55;99511.59;;;6.26;100.00
27840;BME280;15207;42.182;24.308;2024-03-08T06:06:22;99510.78;;;6.40;100.00
27840;BME280;15207;42.182;24.308;2024-03-08T06:08:48;99503.78;;;6.23;100.00
27840;BME280;15207;42.182;24.308;2024-03-08T06:11:18;99512.03;;;6.18;100.00
27840;BME280;15207;42.182;24.308;2024-03-08T06:13:44;99508.94;;;6.26;100.00
27840;BME280;15207;42.182;24.308;2024-03-08T06:16:10;99518.25;;;6.33;100.00
27840;BME280;15207;42.182;24.308;2024-03-08T06:18:35;99519.66;;;6.08;100.00
27840;BME280;15207;42.182;24.308;2024-03-08T06:21:07;99517.94;;;6.24;100.00
27840;BME280;15207;42.182;24.308;2024-03-08T06:23:39;99520.19;;;6.15;100.00
27840;BME280;15207;42.182;24.308;2024-03-08T06:26:05;99520.78;;;6.20;100.00
27840;BME280;15207;42.182;24.308;2024-03-08T06:28:30;99515.81;;;6.14;100.00
27840;BME280;15207;42.182;24.308;2024-03-08T06:30:58;99522.75;;;6.33;100.00
27840;BME280;15207;42.182;24.308;2024-03-08T06:33:24;99524.09;;;6.24;100.00
27840;BME280;15207;42.182;24.308;2024-03-08T06:35:52;99520.81;;;6.51;100.00
27840;BME280;15207;42.182;24.308;2024-03-08T06:38:17;99523.72;;;6.46;100.00
27840;BME280;15207;42.182;24.308;2024-03-08T06:40:43;99530.47;;;6.68;100.00
27840;BME280;15207;42.182;24.308;2024-03-08T06:43:09;99529.28;;;6.58;100.00
27840;BME280;15207;42.182;24.308;2024-03-08T06:45:36;99533.31;;;6.49;100.00
27840;BME280;15207;42.182;24.308;2024-03-08T06:48:03;99532.03;;;6.56;100.00
27840;BME280;15207;42.182;24.308;2024-03-08T06:50:28;99531.63;;;6.48;100.00
27840;BME280;15207;42.182;24.308;2024-03-08T06:52:54;99531.53;;;6.50;100.00
27840;BME280;15207;42.182;24.308;2024-03-08T06:55:20;99529.69;;;6.35;100.00
27840;BME280;15207;42.182;24.308;2024-03-08T06:57:45;99536.03;;;6.33;100.00
27840;BME280;15207;42.182;24.308;2024-03-08T07:00:11;99535.22;;;6.47;100.00
27840;BME280;15207;42.182;24.308;2024-03-08T07:02:43;99543.56;;;6.41;100.00
27840;BME280;15207;42.182;24.308;2024-03-08T07:05:11;99541.06;;;6.54;100.00
27840;BME280;15207;42.182;24.308;2024-03-08T07:07:36;99552.34;;;6.73;100.00
27840;BME280;15207;42.182;24.308;2024-03-08T07:10:05;99550.72;;;6.71;100.00
27840;BME280;15207;42.182;24.308;2024-03-08T07:12:30;99545.19;;;6.74;100.00
27840;BME280;15207;42.182;24.308;2024-03-08T07:14:56;99547.25;;;6.69;100.00
27840;BME280;15207;42.182;24.308;2024-03-08T07:17:21;99544.84;;;6.95;100.00
27840;BME280;15207;42.182;24.308;2024-03-08T07:19:47;99552.56;;;6.99;100.00
27840;BME280;15207;42.182;24.308;2024-03-08T07:22:12;99549.84;;;7.16;100.00
27840;BME280;15207;42.182;24.308;2024-03-08T07:24:38;99556.94;;;7.00;100.00
27840;BME280;15207;42.182;24.308;2024-03-08T07:27:13;99550.28;;;6.93;100.00
27840;BME280;15207;42.182;24.308;2024-03-08T07:29:39;99553.63;;;6.97;100.00
27840;BME280;15207;42.182;24.308;2024-03-08T07:32:04;99555.13;;;6.86;100.00
27840;BME280;15207;42.182;24.308;2024-03-08T07:34:44;99555.50;;;6.95;100.00
27840;BME280;15207;42.182;24.308;2024-03-08T07:37:09;99561.66;;;6.81;100.00
27840;BME280;15207;42.182;24.308;2024-03-08T07:39:39;99566.88;;;7.13;100.00
27840;BME280;15207;42.182;24.308;2024-03-08T07:42:04;99568.88;;;7.24;100.00
27840;BME280;15207;42.182;24.308;2024-03-08T07:44:30;99564.34;;;6.95;100.00
27840;BME280;15207;42.182;24.308;2024-03-08T07:46:57;99566.94;;;6.97;100.00
27840;BME280;15207;42.182;24.308;2024-03-08T07:49:22;99569.16;;;7.19;100.00
27840;BME280;15207;42.182;24.308;2024-03-08T07:51:47;99572.88;;;7.31;100.00
27840;BME280;15207;42.182;24.308;2024-03-08T07:54:14;99573.94;;;7.43;100.00
27840;BME280;15207;42.182;24.308;2024-03-08T07:56:39;99568.09;;;7.07;100.00
27840;BME280;15207;42.182;24.308;2024-03-08T07:59:05;99572.38;;;7.10;100.00
27840;BME280;15207;42.182;24.308;2024-03-08T08:01:30;99578.94;;;7.19;100.00
27840;BME280;15207;42.182;24.308;2024-03-08T08:03:56;99568.28;;;7.19;100.00
27840;BME280;15207;42.182;24.308;2024-03-08T08:06:22;99577.25;;;7.32;100.00
27840;BME280;15207;42.182;24.308;2024-03-08T08:08:47;99570.56;;;6.96;100.00
27840;BME280;15207;42.182;24.308;2024-03-08T08:11:13;99583.31;;;7.20;100.00
27840;BME280;15207;42.182;24.308;2024-03-08T08:13:39;99578.22;;;7.31;100.00
27840;BME280;15207;42.182;24.308;2024-03-08T08:16:07;99576.78;;;7.25;100.00
27840;BME280;15207;42.182;24.308;2024-03-08T08:18:33;99575.44;;;7.18;100.00
27840;BME280;15207;42.182;24.308;2024-03-08T08:20:58;99580.75;;;7.04;100.00
27840;BME280;15207;42.182;24.308;2024-03-08T08:23:25;99584.56;;;7.14;100.00
27840;BME280;15207;42.182;24.308;2024-03-08T08:25:51;99573.25;;;7.25;100.00
27840;BME280;15207;42.182;24.308;2024-03-08T08:28:17;99582.69;;;7.31;100.00
27840;BME280;15207;42.182;24.308;2024-03-08T08:30:44;99588.19;;;7.42;100.00
27840;BME280;15207;42.182;24.308;2024-03-08T08:33:09;99581.81;;;7.59;100.00
27840;BME280;15207;42.182;24.308;2024-03-08T08:35:36;99580.00;;;7.16;100.00
27840;BME280;15207;42.182;24.308;2024-03-08T08:38:02;99582.41;;;7.21;100.00
27840;BME280;15207;42.182;24.308;2024-03-08T08:40:29;99578.09;;;7.47;100.00
27840;BME280;15207;42.182;24.308;2024-03-08T08:42:56;99581.06;;;7.57;100.00
27840;BME280;15207;42.182;24.308;2024-03-08T08:45:25;99574.88;;;7.42;100.00
27840;BME280;15207;42.182;24.308;2024-03-08T08:47:51;99574.69;;;7.60;100.00
27840;BME280;15207;42.182;24.308;2024-03-08T08:50:17;99581.25;;;7.68;100.00
27840;BME280;15207;42.182;24.308;2024-03-08T08:52:49;99582.28;;;7.80;100.00
27840;BME280;15207;42.182;24.308;2024-03-08T08:55:15;99579.22;;;8.01;100.00
27840;BME280;15207;42.182;24.308;2024-03-08T08:57:41;99584.97;;;7.80;100.00
27840;BME280;15207;42.182;24.308;2024-03-08T09:00:06;99583.16;;;7.81;100.00
27840;BME280;15207;42.182;24.308;2024-03-08T09:02:33;99581.91;;;7.72;100.00
27840;BME280;15207;42.182;24.308;2024-03-08T09:04:59;99577.63;;;7.84;100.00
27840;BME280;15207;42.182;24.308;2024-03-08T09:07:26;99578.66;;;7.81;100.00
27840;BME280;15207;42.182;24.308;2024-03-08T09:09:53;99579.03;;;8.04;100.00
27840;BME280;15207;42.182;24.308;2024-03-08T09:12:22;99576.94;;;7.95;100.00
27840;BME280;15207;42.182;24.308;2024-03-08T09:14:48;99576.13;;;8.07;100.00
27840;BME280;15207;42.182;24.308;2024-03-08T09:17:14;99581.50;;;8.35;100.00
27840;BME280;15207;42.182;24.308;2024-03-08T09:19:43;99567.88;;;8.12;100.00
27840;BME280;15207;42.182;24.308;2024-03-08T09:22:08;99575.97;;;7.96;100.00
27840;BME280;15207;42.182;24.308;2024-03-08T09:24:34;99571.28;;;8.14;100.00
27840;BME280;15207;42.182;24.308;2024-03-08T09:26:59;99580.66;;;8.34;100.00
27840;BME280;15207;42.182;24.308;2024-03-08T09:29:25;99586.34;;;8.43;100.00
27840;BME280;15207;42.182;24.308;2024-03-08T09:31:50;99588.25;;;8.41;100.00
27840;BME280;15207;42.182;24.308;2024-03-08T09:34:16;99579.25;;;8.29;100.00
27840;BME280;15207;42.182;24.308;2024-03-08T09:36:44;99580.97;;;8.15;100.00
27840;BME280;15207;42.182;24.308;2024-03-08T09:39:09;99578.94;;;8.06;100.00
27840;BME280;15207;42.182;24.308;2024-03-08T09:41:34;99572.16;;;8.42;100.00
27840;BME280;15207;42.182;24.308;2024-03-08T09:44:00;99582.28;;;8.37;100.00
27840;BME280;15207;42.182;24.308;2024-03-08T09:46:26;99581.72;;;8.32;100.00
27840;BME280;15207;42.182;24.308;2024-03-08T09:48:53;99571.66;;;8.50;100.00
27840;BME280;15207;42.182;24.308;2024-03-08T09:51:22;99582.16;;;8.94;100.00
27840;BME280;15207;42.182;24.308;2024-03-08T09:53:52;99571.53;;;8.66;100.00
27840;BME280;15207;42.182;24.308;2024-03-08T09:56:19;99570.28;;;8.57;100.00
27840;BME280;15207;42.182;24.308;2024-03-08T09:58:46;99571.34;;;8.55;100.00
27840;BME280;15207;42.182;24.308;2024-03-08T10:01:30;99567.22;;;9.17;100.00
27840;BME280;15207;42.182;24.308;2024-03-08T10:03:57;99567.94;;;9.58;100.00
27840;BME280;15207;42.182;24.308;2024-03-08T10:06:23;99568.06;;;9.57;99.88
27840;BME280;15207;42.182;24.308;2024-03-08T10:08:50;99566.66;;;10.01;100.00
27840;BME280;15207;42.182;24.308;2024-03-08T10:11:17;99567.38;;;10.16;94.78
27840;BME280;15207;42.182;24.308;2024-03-08T10:13:44;99563.81;;;9.91;97.42
27840;BME280;15207;42.182;24.308;2024-03-08T10:16:12;99560.84;;;10.21;94.86
27840;BME280;15207;42.182;24.308;2024-03-08T10:18:37;99565.91;;;10.50;92.54
27840;BME280;15207;42.182;24.308;2024-03-08T10:21:09;99563.47;;;10.09;92.67
27840;BME280;15207;42.182;24.308;2024-03-08T10:23:40;99557.03;;;9.61;95.94
27840;BME280;15207;42.182;24.308;2024-03-08T10:26:13;99560.69;;;9.60;98.36
27840;BME280;15207;42.182;24.308;2024-03-08T10:28:45;99560.09;;;9.81;98.97
27840;BME280;15207;42.182;24.308;2024-03-08T10:31:13;99556.13;;;9.74;95.25
27840;BME280;15207;42.182;24.308;2024-03-08T10:33:40;99554.13;;;9.77;92.97
27840;BME280;15207;42.182;24.308;2024-03-08T10:36:09;99550.44;;;9.91;91.22
27840;BME280;15207;42.182;24.308;2024-03-08T10:38:36;99545.44;;;9.74;91.85
27840;BME280;15207;42.182;24.308;2024-03-08T10:41:03;99547.59;;;9.82;92.58
27840;BME280;15207;42.182;24.308;2024-03-08T10:43:35;99548.97;;;9.74;95.68
27840;BME280;15207;42.182;24.308;2024-03-08T10:46:21;99542.28;;;10.06;93.21
27840;BME280;15207;42.182;24.308;2024-03-08T10:48:52;99545.84;;;9.81;91.21
27840;BME280;15207;42.182;24.308;2024-03-08T10:51:21;99537.06;;;9.91;92.42
27840;BME280;15207;42.182;24.308;2024-03-08T10:53:47;99541.91;;;9.86;90.78
27840;BME280;15207;42.182;24.308;2024-03-08T10:56:14;99540.84;;;9.76;92.87
27840;BME280;15207;42.182;24.308;2024-03-08T10:58:40;99541.75;;;10.01;91.18
27840;BME280;15207;42.182;24.308;2024-03-08T11:01:06;99527.69;;;10.35;91.95
27840;BME280;15207;42.182;24.308;2024-03-08T11:06:30;99527.75;;;10.22;87.58
27840;BME280;15207;42.182;24.308;2024-03-08T11:08:55;99518.03;;;10.21;88.83
27840;BME280;15207;42.182;24.308;2024-03-08T11:11:33;99520.16;;;10.40;88.33
27840;BME280;15207;42.182;24.308;2024-03-08T11:14:03;99516.34;;;10.44;88.30
27840;BME280;15207;42.182;24.308;2024-03-08T11:18:59;99523.59;;;10.66;87.69
27840;BME280;15207;42.182;24.308;2024-03-08T11:21:32;99522.50;;;10.69;86.79
27840;BME280;15207;42.182;24.308;2024-03-08T11:24:08;99520.28;;;10.14;85.95
27840;BME280;15207;42.182;24.308;2024-03-08T11:26:34;99520.66;;;10.09;87.69
27840;BME280;15207;42.182;24.308;2024-03-08T11:29:33;99512.59;;;10.34;90.24
27840;BME280;15207;42.182;24.308;2024-03-08T11:32:16;99508.84;;;10.61;88.10
27840;BME280;15207;42.182;24.308;2024-03-08T11:34:46;99506.16;;;10.61;86.18
27840;BME280;15207;42.182;24.308;2024-03-08T11:37:21;99507.66;;;10.76;84.75
27840;BME280;15207;42.182;24.308;2024-03-08T11:39:54;99505.47;;;10.70;84.01
27840;BME280;15207;42.182;24.308;2024-03-08T11:42:27;99496.13;;;10.51;87.11
27840;BME280;15207;42.182;24.308;2024-03-08T11:44:53;99496.94;;;10.76;83.88
27840;BME280;15207;42.182;24.308;2024-03-08T11:47:20;99490.13;;;10.72;83.98
27840;BME280;15207;42.182;24.308;2024-03-08T11:49:45;99487.22;;;10.39;85.24
27840;BME280;15207;42.182;24.308;2024-03-08T11:52:14;99480.25;;;10.61;83.58
27840;BME280;15207;42.182;24.308;2024-03-08T11:54:48;99485.06;;;11.03;84.69
27840;BME280;15207;42.182;24.308;2024-03-08T11:57:18;99483.25;;;11.38;82.99
27840;BME280;15207;42.182;24.308;2024-03-08T11:59:54;99482.25;;;11.62;80.36
27840;BME280;15207;42.182;24.308;2024-03-08T12:02:21;99485.81;;;11.51;80.43
27840;BME280;15207;42.182;24.308;2024-03-08T12:04:55;99473.84;;;11.67;78.59
27840;BME280;15207;42.182;24.308;2024-03-08T12:07:23;99481.72;;;11.80;76.19
27840;BME280;15207;42.182;24.308;2024-03-08T12:10:14;99472.28;;;11.18;75.58
27840;BME280;15207;42.182;24.308;2024-03-08T12:12:44;99470.03;;;11.69;81.01
27840;BME280;15207;42.182;24.308;2024-03-08T12:15:09;99472.03;;;12.11;78.11
27840;BME280;15207;42.182;24.308;2024-03-08T12:17:37;99463.75;;;12.14;74.56
27840;BME280;15207;42.182;24.308;2024-03-08T12:20:16;99459.78;;;12.30;71.43
27840;BME280;15207;42.182;24.308;2024-03-08T12:22:43;99465.31;;;12.50;71.51
27840;BME280;15207;42.182;24.308;2024-03-08T12:25:11;99459.16;;;12.59;74.25
27840;BME280;15207;42.182;24.308;2024-03-08T12:27:40;99462.97;;;12.78;71.79
27840;BME280;15207;42.182;24.308;2024-03-08T12:30:16;99456.09;;;12.95;71.17
27840;BME280;15207;42.182;24.308;2024-03-08T12:33:01;99454.38;;;12.84;69.00
27840;BME280;15207;42.182;24.308;2024-03-08T12:35:28;99455.34;;;12.62;72.15
27840;BME280;15207;42.182;24.308;2024-03-08T12:37:55;99456.50;;;12.26;67.80
27840;BME280;15207;42.182;24.308;2024-03-08T12:40:27;99464.84;;;12.12;70.04
27840;BME280;15207;42.182;24.308;2024-03-08T12:42:56;99452.91;;;11.93;70.46
27840;BME280;15207;42.182;24.308;2024-03-08T12:45:24;99454.31;;;11.76;71.78
27840;BME280;15207;42.182;24.308;2024-03-08T12:47:53;99454.13;;;11.45;71.38
27840;BME280;15207;42.182;24.308;2024-03-08T12:50:19;99456.19;;;11.41;74.50
27840;BME280;15207;42.182;24.308;2024-03-08T12:52:45;99458.25;;;11.49;76.51
27840;BME280;15207;42.182;24.308;2024-03-08T12:55:10;99456.09;;;11.43;77.88